createdAt,value
2023-02-13T00:00:16.970Z,2.60
2023-02-13T00:02:43.755Z,3.10
2023-02-13T00:05:10.401Z,2.60
2023-02-13T00:07:37.036Z,3.10
2023-02-13T00:10:03.959Z,2.50
2023-02-13T00:12:30.658Z,2.70
2023-02-13T00:14:57.340Z,2.80
2023-02-13T00:17:24.729Z,3.00
2023-02-13T00:19:52.356Z,2.90
2023-02-13T00:22:19.035Z,2.90
2023-02-13T00:24:45.704Z,2.70
2023-02-13T00:27:12.378Z,2.80
2023-02-13T00:29:39.134Z,2.50
2023-02-13T00:32:05.838Z,2.80
2023-02-13T00:34:33.285Z,2.60
2023-02-13T00:37:03.199Z,2.60
2023-02-13T00:39:30.055Z,2.90
2023-02-13T00:41:56.778Z,2.60
2023-02-13T00:44:23.421Z,2.80
2023-02-13T00:46:50.097Z,2.70
2023-02-13T00:49:17.037Z,2.70
2023-02-13T00:51:43.725Z,2.80
2023-02-13T00:54:10.456Z,3.30
2023-02-13T00:56:37.202Z,2.90
2023-02-13T00:59:05.432Z,2.80
2023-02-13T01:01:32.138Z,3.30
2023-02-13T01:04:00.024Z,2.90
2023-02-13T01:06:27.648Z,2.80
2023-02-13T01:08:54.430Z,2.40
2023-02-13T01:11:21.201Z,2.80
2023-02-13T01:13:47.926Z,2.70
2023-02-13T01:16:16.110Z,3.00
2023-02-13T01:18:42.835Z,2.70
2023-02-13T01:21:16.916Z,2.60
2023-02-13T01:23:44.491Z,2.70
2023-02-13T01:26:17.610Z,2.70
2023-02-13T01:28:44.312Z,2.40
2023-02-13T01:31:11.409Z,2.50
2023-02-13T01:33:38.311Z,2.40
2023-02-13T01:36:14.226Z,2.30
2023-02-13T01:38:41.790Z,2.30
2023-02-13T01:41:09.755Z,2.50
2023-02-13T01:43:44.035Z,2.70
2023-02-13T01:46:13.536Z,2.80
2023-02-13T01:48:40.322Z,2.70
2023-02-13T01:51:14.586Z,2.40
2023-02-13T01:53:47.287Z,2.50
2023-02-13T01:56:21.075Z,2.40
2023-02-13T01:58:52.937Z,2.30
2023-02-13T02:01:22.435Z,2.60
2023-02-13T02:03:59.806Z,2.90
2023-02-13T02:06:34.625Z,2.50
2023-02-13T02:11:54.994Z,2.40
2023-02-13T02:14:23.831Z,2.40
2023-02-13T02:16:50.471Z,2.60
2023-02-13T02:19:55.898Z,2.50
2023-02-13T02:22:59.075Z,2.30
2023-02-13T02:25:54.464Z,2.70
2023-02-13T02:28:43.924Z,2.30
2023-02-13T02:31:13.620Z,2.50
2023-02-13T02:33:40.279Z,2.70
2023-02-13T02:36:11.256Z,2.60
2023-02-13T02:39:02.279Z,2.60
2023-02-13T02:42:06.643Z,2.50
2023-02-13T02:44:54.671Z,2.60
2023-02-13T02:48:10.138Z,2.70
2023-02-13T02:50:43.517Z,2.20
2023-02-13T02:53:33.149Z,3.00
2023-02-13T02:56:10.634Z,2.70
2023-02-13T02:59:24.044Z,2.70
2023-02-13T03:02:12.508Z,2.00
2023-02-13T03:05:02.733Z,2.50
2023-02-13T03:10:17.054Z,2.10
2023-02-13T03:13:13.958Z,2.50
2023-02-13T03:16:02.594Z,2.30
2023-02-13T03:18:52.112Z,2.00
2023-02-13T03:22:19.004Z,2.30
2023-02-13T03:25:18.998Z,2.10
2023-02-13T03:28:39.358Z,2.60
2023-02-13T03:34:13.083Z,2.00
2023-02-13T03:37:13.947Z,2.10
2023-02-13T03:39:58.255Z,2.60
2023-02-13T03:45:22.422Z,2.10
2023-02-13T03:47:55.459Z,2.20
2023-02-13T03:50:24.095Z,2.10
2023-02-13T03:52:56.833Z,2.20
2023-02-13T03:55:53.192Z,2.20
2023-02-13T03:58:53.642Z,2.10
2023-02-13T04:01:26.436Z,2.00
2023-02-13T04:04:09.520Z,2.30
2023-02-13T04:06:49.142Z,2.40
2023-02-13T04:09:17.082Z,2.50
2023-02-13T04:12:06.916Z,2.40
2023-02-13T04:14:57.926Z,2.50
2023-02-13T04:17:35.452Z,2.10
2023-02-13T04:20:02.682Z,2.40
2023-02-13T04:22:29.515Z,2.80
2023-02-13T04:24:56.126Z,2.30
2023-02-13T04:27:28.073Z,2.40
2023-02-13T04:29:54.718Z,2.10
2023-02-13T04:32:21.429Z,2.20
2023-02-13T04:34:48.009Z,2.90
2023-02-13T04:37:14.648Z,2.50
2023-02-13T04:39:41.234Z,2.20
2023-02-13T04:42:07.882Z,2.20
2023-02-13T04:44:34.536Z,2.80
2023-02-13T04:47:01.165Z,2.40
2023-02-13T04:49:27.877Z,2.00
2023-02-13T04:51:54.536Z,2.40
2023-02-13T04:54:21.159Z,2.60
2023-02-13T04:56:47.866Z,2.50
2023-02-13T04:59:14.675Z,2.50
2023-02-13T05:01:41.344Z,2.30
2023-02-13T05:04:08.158Z,2.50
2023-02-13T05:06:34.780Z,2.50
2023-02-13T05:09:01.412Z,2.20
2023-02-13T05:11:28.108Z,2.30
2023-02-13T05:13:54.988Z,2.30
2023-02-13T05:16:21.614Z,2.60
2023-02-13T05:18:48.607Z,2.30
2023-02-13T05:21:33.742Z,2.40
2023-02-13T05:24:01.493Z,2.50
2023-02-13T05:26:28.151Z,2.40
2023-02-13T05:29:13.693Z,2.50
2023-02-13T05:31:40.383Z,2.50
2023-02-13T05:34:07.175Z,2.80
2023-02-13T05:36:34.027Z,2.60
2023-02-13T05:39:00.772Z,2.90
2023-02-13T05:41:27.372Z,2.40
2023-02-13T05:43:54.115Z,3.50
2023-02-13T05:46:20.751Z,2.50
2023-02-13T05:48:47.332Z,2.60
2023-02-13T05:51:13.937Z,2.30
2023-02-13T05:53:40.550Z,2.30
2023-02-13T05:56:07.274Z,2.60
2023-02-13T05:58:34.758Z,2.00
2023-02-13T06:01:02.321Z,2.80
2023-02-13T06:03:30.655Z,2.30
2023-02-13T06:05:58.454Z,2.40
2023-02-13T06:08:25.813Z,2.70
2023-02-13T06:10:52.856Z,3.10
2023-02-13T06:13:19.598Z,2.90
2023-02-13T06:15:46.344Z,2.80
2023-02-13T06:18:12.978Z,2.50
2023-02-13T06:20:39.617Z,3.40
2023-02-13T06:23:06.261Z,2.80
2023-02-13T06:25:36.290Z,3.10
2023-02-13T06:28:03.692Z,3.20
2023-02-13T06:30:31.250Z,3.00
2023-02-13T06:32:58.000Z,3.20
2023-02-13T06:35:24.729Z,2.90
2023-02-13T06:37:51.419Z,2.80
2023-02-13T06:40:18.269Z,3.10
2023-02-13T06:42:45.875Z,3.50
2023-02-13T06:45:13.409Z,2.90
2023-02-13T06:47:44.649Z,3.10
2023-02-13T06:50:12.973Z,3.80
2023-02-13T06:52:39.687Z,3.50
2023-02-13T06:55:06.555Z,3.40
2023-02-13T06:57:33.804Z,4.30
2023-02-13T07:00:03.823Z,3.80
2023-02-13T07:02:30.590Z,4.00
2023-02-13T07:04:57.309Z,5.90
2023-02-13T07:07:24.259Z,3.70
2023-02-13T07:09:51.019Z,3.40
2023-02-13T07:12:17.616Z,3.80
2023-02-13T07:14:44.241Z,3.10
2023-02-13T07:17:13.575Z,3.40
2023-02-13T07:19:40.153Z,3.60
2023-02-13T07:22:06.761Z,3.30
2023-02-13T07:24:35.442Z,2.70
2023-02-13T07:27:02.061Z,4.10
2023-02-13T07:29:28.672Z,3.80
2023-02-13T07:31:55.449Z,3.70
2023-02-13T07:34:22.267Z,3.90
2023-02-13T07:36:48.982Z,4.40
2023-02-13T07:39:15.565Z,4.60
2023-02-13T07:41:42.234Z,4.60
2023-02-13T07:44:09.086Z,4.20
2023-02-13T07:46:36.190Z,4.40
2023-02-13T07:49:03.007Z,4.20
2023-02-13T07:51:29.656Z,4.10
2023-02-13T07:53:56.660Z,4.30
2023-02-13T07:56:24.282Z,4.70
2023-02-13T07:58:51.000Z,4.80
2023-02-13T08:01:17.885Z,4.30
2023-02-13T08:03:48.365Z,4.50
2023-02-13T08:06:15.072Z,4.00
2023-02-13T08:08:41.648Z,4.20
2023-02-13T08:11:47.154Z,4.20
2023-02-13T08:14:13.730Z,3.60
2023-02-13T08:16:40.503Z,3.40
2023-02-13T08:19:07.142Z,4.10
2023-02-13T08:21:35.340Z,4.40
2023-02-13T08:24:02.004Z,4.40
2023-02-13T08:26:31.741Z,4.10
2023-02-13T08:28:58.525Z,4.10
2023-02-13T08:31:25.336Z,3.20
2023-02-13T08:33:52.034Z,4.30
2023-02-13T08:36:21.888Z,3.90
2023-02-13T08:38:48.678Z,4.70
2023-02-13T08:43:50.494Z,5.40
2023-02-13T08:46:18.002Z,4.40
2023-02-13T08:48:44.746Z,4.50
2023-02-13T08:51:14.193Z,5.30
2023-02-13T08:53:42.370Z,4.20
2023-02-13T08:56:09.904Z,5.00
2023-02-13T08:58:36.533Z,4.60
2023-02-13T09:01:09.602Z,5.50
2023-02-13T09:03:36.739Z,5.20
2023-02-13T09:06:03.791Z,5.20
2023-02-13T09:08:31.052Z,5.80
2023-02-13T09:11:02.437Z,5.40
2023-02-13T09:13:34.530Z,5.90
2023-02-13T09:18:29.238Z,5.50
2023-02-13T09:20:59.812Z,5.30
2023-02-13T09:23:27.455Z,4.90
2023-02-13T09:25:54.148Z,5.60
2023-02-13T09:28:20.844Z,5.70
2023-02-13T09:30:49.318Z,4.90
2023-02-13T09:33:16.350Z,5.30
2023-02-13T09:35:43.886Z,6.60
2023-02-13T09:38:10.933Z,5.90
2023-02-13T09:40:51.085Z,5.90
2023-02-13T09:43:30.551Z,5.80
2023-02-13T09:46:08.229Z,5.70
2023-02-13T09:48:38.156Z,6.00
2023-02-13T09:51:05.635Z,7.00
2023-02-13T09:53:36.531Z,6.00
2023-02-13T09:56:15.853Z,5.90
2023-02-13T09:58:44.472Z,4.70
2023-02-13T10:01:36.954Z,6.50
2023-02-13T10:04:28.221Z,7.00
2023-02-13T10:07:19.209Z,6.60
2023-02-13T10:10:07.909Z,6.90
2023-02-13T10:12:56.824Z,6.60
2023-02-13T10:15:42.315Z,8.10
2023-02-13T10:18:19.573Z,6.70
2023-02-13T10:20:53.373Z,7.40
2023-02-13T10:23:26.255Z,6.90
2023-02-13T10:26:05.688Z,7.20
2023-02-13T10:28:38.337Z,7.40
2023-02-13T10:31:10.240Z,7.60
2023-02-13T10:33:46.775Z,5.90
2023-02-13T10:36:22.138Z,7.90
2023-02-13T10:38:55.801Z,7.50
2023-02-13T10:41:25.594Z,6.80
2023-02-13T10:44:11.190Z,11.70
2023-02-13T10:46:49.409Z,8.00
2023-02-13T10:49:34.437Z,6.60
2023-02-13T10:52:25.563Z,6.90
2023-02-13T10:55:11.115Z,5.60
2023-02-13T10:57:56.967Z,7.00
2023-02-13T11:00:39.036Z,7.60
2023-02-13T11:03:05.903Z,8.20
2023-02-13T11:05:43.138Z,8.80
2023-02-13T11:08:25.541Z,7.90
2023-02-13T11:10:52.684Z,9.50
2023-02-13T11:13:25.685Z,8.90
2023-02-13T11:16:18.904Z,7.80
2023-02-13T11:18:50.313Z,8.50
2023-02-13T11:21:22.034Z,8.40
2023-02-13T11:23:55.026Z,8.50
2023-02-13T11:26:32.457Z,6.90
2023-02-13T11:29:15.817Z,8.90
2023-02-13T11:31:42.647Z,8.10
2023-02-13T11:34:38.781Z,8.30
2023-02-13T11:37:25.830Z,7.20
2023-02-13T11:39:55.367Z,7.90
2023-02-13T11:42:24.965Z,10.30
2023-02-13T11:45:23.089Z,8.40
2023-02-13T11:47:50.492Z,8.60
2023-02-13T11:50:31.509Z,7.80
2023-02-13T11:53:03.307Z,9.70
2023-02-13T11:55:35.403Z,7.90
2023-02-13T11:58:21.568Z,8.00
2023-02-13T12:00:48.363Z,8.00
2023-02-13T12:03:21.159Z,10.20
2023-02-13T12:06:15.541Z,8.50
2023-02-13T12:08:46.539Z,7.60
2023-02-13T12:11:31.690Z,7.10
2023-02-13T12:14:00.317Z,9.00
2023-02-13T12:16:38.557Z,8.60
2023-02-13T12:19:11.200Z,9.20
2023-02-13T12:22:08.496Z,8.90
2023-02-13T12:25:17.239Z,8.70
2023-02-13T12:28:12.181Z,7.50
2023-02-13T12:31:05.836Z,9.50
2023-02-13T12:34:33.140Z,8.50
2023-02-13T12:37:08.617Z,7.70
2023-02-13T12:39:39.303Z,7.00
2023-02-13T12:42:34.676Z,6.60
2023-02-13T12:45:38.791Z,7.70
2023-02-13T12:48:22.386Z,9.50
2023-02-13T12:51:05.557Z,6.80
2023-02-13T12:53:50.406Z,8.00
2023-02-13T12:56:39.221Z,9.40
2023-02-13T12:59:20.922Z,9.60
2023-02-13T13:01:55.461Z,8.90
2023-02-13T13:04:40.854Z,9.20
2023-02-13T13:07:20.279Z,10.50
2023-02-13T13:09:58.981Z,9.70
2023-02-13T13:12:48.000Z,10.90
2023-02-13T13:15:42.863Z,10.40
2023-02-13T13:18:18.312Z,9.20
2023-02-13T13:20:58.615Z,10.10
2023-02-13T13:23:29.917Z,9.90
2023-02-13T13:26:06.346Z,8.90
2023-02-13T13:28:37.114Z,9.50
2023-02-13T13:31:04.690Z,10.60
2023-02-13T13:33:34.103Z,9.60
2023-02-13T13:36:07.063Z,9.60
2023-02-13T13:39:12.165Z,9.90
2023-02-13T13:42:04.229Z,6.30
2023-02-13T13:44:41.083Z,9.20
2023-02-13T13:47:29.587Z,9.60
2023-02-13T13:49:58.672Z,9.20
2023-02-13T13:52:28.299Z,9.70
2023-02-13T13:54:57.455Z,7.80
2023-02-13T13:57:45.288Z,8.20
2023-02-13T14:00:14.302Z,9.70
2023-02-13T14:02:48.365Z,8.90
2023-02-13T14:05:33.880Z,9.10
2023-02-13T14:08:08.654Z,8.30
2023-02-13T14:10:35.264Z,9.10
2023-02-13T14:13:03.147Z,6.40
2023-02-13T14:15:38.791Z,7.70
2023-02-13T14:18:14.219Z,8.80
2023-02-13T14:20:50.911Z,8.20
2023-02-13T14:23:34.870Z,8.80
2023-02-13T14:26:16.933Z,8.70
2023-02-13T14:28:49.381Z,9.90
2023-02-13T14:31:30.832Z,9.90
2023-02-13T14:33:59.915Z,8.20
2023-02-13T14:36:49.124Z,10.50
2023-02-13T14:39:31.519Z,12.20
2023-02-13T14:42:01.413Z,9.80
2023-02-13T14:44:55.541Z,9.00
2023-02-13T14:47:30.572Z,11.30
2023-02-13T14:49:59.670Z,9.90
2023-02-13T14:52:32.837Z,9.60
2023-02-13T14:55:07.810Z,9.10
2023-02-13T14:57:49.223Z,9.00
2023-02-13T15:00:45.994Z,10.10
2023-02-13T15:03:35.530Z,8.40
2023-02-13T15:06:05.926Z,9.50
2023-02-13T15:08:38.551Z,9.30
2023-02-13T15:11:25.439Z,10.00
2023-02-13T15:13:52.033Z,7.30
2023-02-13T15:16:19.617Z,8.90
2023-02-13T15:18:55.396Z,9.30
2023-02-13T15:21:33.084Z,8.90
2023-02-13T15:24:00.152Z,9.50
2023-02-13T15:26:28.985Z,9.90
2023-02-13T15:29:05.855Z,9.60
2023-02-13T15:31:35.095Z,9.30
2023-02-13T15:34:01.858Z,8.60
2023-02-13T15:36:39.577Z,10.20
2023-02-13T15:39:11.105Z,8.90
2023-02-13T15:41:41.058Z,10.70
2023-02-13T15:44:08.085Z,9.40
2023-02-13T15:46:37.110Z,10.00
2023-02-13T15:49:16.847Z,8.70
2023-02-13T15:51:44.121Z,10.60
2023-02-13T15:54:29.016Z,10.50
2023-02-13T15:57:01.936Z,10.30
2023-02-13T15:59:34.099Z,11.00
2023-02-13T16:02:02.205Z,12.00
2023-02-13T16:04:30.293Z,10.30
2023-02-13T16:06:58.510Z,11.70
2023-02-13T16:09:35.550Z,10.50
2023-02-13T16:12:28.521Z,11.90
2023-02-13T16:15:03.344Z,11.00
2023-02-13T16:17:36.508Z,11.20
2023-02-13T16:20:08.824Z,10.90
2023-02-13T16:22:45.250Z,10.70
2023-02-13T16:25:17.063Z,10.80
2023-02-13T16:27:54.388Z,11.00
2023-02-13T16:30:27.338Z,11.00
2023-02-13T16:33:15.459Z,11.60
2023-02-13T16:36:09.672Z,12.40
2023-02-13T16:38:48.494Z,11.60
2023-02-13T16:41:28.734Z,11.90
2023-02-13T16:44:03.640Z,12.30
2023-02-13T16:46:39.823Z,12.10
2023-02-13T16:49:09.423Z,12.70
2023-02-13T16:51:38.769Z,14.90
2023-02-13T16:54:11.279Z,15.00
2023-02-13T16:56:42.022Z,13.70
2023-02-13T16:59:17.745Z,15.20
2023-02-13T17:01:44.429Z,13.10
2023-02-13T17:04:21.775Z,12.80
2023-02-13T17:06:48.414Z,14.10
2023-02-13T17:09:15.080Z,13.50
2023-02-13T17:11:41.700Z,12.40
2023-02-13T17:14:08.348Z,12.70
2023-02-13T17:16:35.005Z,12.20
2023-02-13T17:19:01.669Z,12.30
2023-02-13T17:21:28.401Z,11.70
2023-02-13T17:23:54.996Z,12.00
2023-02-13T17:26:21.610Z,11.40
2023-02-13T17:28:48.266Z,11.90
2023-02-13T17:31:15.047Z,11.80
2023-02-13T17:33:42.200Z,11.70
2023-02-13T17:36:13.126Z,10.10
2023-02-13T17:38:40.096Z,10.20
2023-02-13T17:41:14.096Z,10.40
2023-02-13T17:43:40.704Z,10.70
2023-02-13T17:46:07.425Z,10.80
2023-02-13T17:48:34.425Z,13.50
2023-02-13T17:51:01.387Z,11.50
2023-02-13T17:53:30.255Z,11.50
2023-02-13T17:55:56.893Z,12.20
2023-02-13T17:58:23.682Z,12.40
2023-02-13T18:00:50.939Z,11.90
2023-02-13T18:03:17.837Z,12.00
2023-02-13T18:05:48.558Z,11.20
2023-02-13T18:08:15.858Z,11.30
2023-02-13T18:10:42.528Z,10.60
2023-02-13T18:13:09.118Z,10.60
2023-02-13T18:15:40.379Z,11.00
2023-02-13T18:18:07.153Z,11.40
2023-02-13T18:20:34.354Z,10.40
2023-02-13T18:23:01.003Z,10.90
2023-02-13T18:25:29.209Z,11.10
2023-02-13T18:27:55.927Z,10.90
2023-02-13T18:30:22.658Z,11.10
2023-02-13T18:32:53.984Z,10.80
2023-02-13T18:35:22.029Z,10.60
2023-02-13T18:37:49.001Z,11.60
2023-02-13T18:40:17.345Z,10.40
2023-02-13T18:42:44.748Z,11.10
2023-02-13T18:45:12.245Z,10.10
2023-02-13T18:47:39.547Z,10.40
2023-02-13T18:50:07.038Z,10.70
2023-02-13T18:52:34.346Z,11.30
2023-02-13T18:55:00.997Z,10.80
2023-02-13T18:57:27.645Z,10.60
2023-02-13T18:59:54.214Z,10.20
2023-02-13T19:02:20.991Z,11.00
2023-02-13T19:04:47.731Z,11.00
2023-02-13T19:07:14.355Z,17.20
2023-02-13T19:09:40.999Z,11.90
2023-02-13T19:12:08.626Z,11.10
2023-02-13T19:14:35.394Z,9.90
2023-02-13T19:17:02.204Z,10.00
2023-02-13T19:19:28.855Z,10.40
2023-02-13T19:21:55.654Z,11.10
2023-02-13T19:24:22.347Z,11.90
2023-02-13T19:26:49.164Z,11.00
2023-02-13T19:29:15.808Z,11.00
2023-02-13T19:31:42.638Z,10.60
2023-02-13T19:34:09.482Z,11.00
2023-02-13T19:36:36.066Z,12.10
2023-02-13T19:39:06.287Z,11.80
2023-02-13T19:41:33.166Z,10.40
2023-02-13T19:44:01.117Z,10.70
2023-02-13T19:46:32.103Z,11.20
2023-02-13T19:48:59.285Z,10.00
2023-02-13T19:51:28.683Z,10.30
2023-02-13T19:54:08.869Z,10.60
2023-02-13T19:56:37.142Z,10.60
2023-02-13T19:59:04.949Z,10.20
2023-02-13T20:01:31.770Z,10.30
2023-02-13T20:03:59.204Z,11.20
2023-02-13T20:06:32.287Z,11.20
2023-02-13T20:09:01.994Z,10.30
2023-02-13T20:11:29.277Z,9.60
2023-02-13T20:14:00.766Z,9.70
2023-02-13T20:16:33.120Z,10.50
2023-02-13T20:19:06.944Z,9.80
2023-02-13T20:21:34.989Z,10.70
2023-02-13T20:24:03.115Z,10.00
2023-02-13T20:26:30.349Z,9.40
2023-02-13T20:28:59.539Z,10.00
2023-02-13T20:31:27.635Z,11.30
2023-02-13T20:33:54.503Z,10.60
2023-02-13T20:36:26.954Z,11.30
2023-02-13T20:38:56.486Z,11.90
2023-02-13T20:41:26.328Z,10.80
2023-02-13T20:43:56.610Z,12.20
2023-02-13T20:46:24.544Z,11.70
2023-02-13T20:48:52.138Z,12.40
2023-02-13T20:51:18.989Z,11.40
2023-02-13T20:53:46.836Z,12.40
2023-02-13T20:56:14.898Z,12.10
2023-02-13T20:58:43.401Z,12.70
2023-02-13T21:01:14.819Z,10.30
2023-02-13T21:03:43.039Z,11.00
2023-02-13T21:06:11.225Z,9.70
2023-02-13T21:08:39.315Z,10.10
2023-02-13T21:11:07.887Z,10.40
2023-02-13T21:13:35.892Z,9.80
2023-02-13T21:16:10.172Z,10.90
2023-02-13T21:18:38.598Z,11.70
2023-02-13T21:21:06.795Z,13.10
2023-02-13T21:23:33.593Z,12.20
2023-02-13T21:26:06.383Z,10.40
2023-02-13T21:28:33.614Z,10.10
2023-02-13T21:31:12.544Z,10.30
2023-02-13T21:33:39.268Z,10.70
2023-02-13T21:36:09.757Z,10.60
2023-02-13T21:38:38.383Z,9.40
2023-02-13T21:41:12.395Z,9.90
2023-02-13T21:43:39.940Z,9.80
2023-02-13T21:46:16.934Z,10.50
2023-02-13T21:48:44.800Z,9.10
2023-02-13T21:51:20.038Z,10.00
2023-02-13T21:53:48.380Z,9.40
2023-02-13T21:56:20.887Z,13.10
2023-02-13T21:58:48.605Z,12.70
2023-02-13T22:01:26.015Z,10.40
2023-02-13T22:04:01.183Z,10.30
2023-02-13T22:06:32.614Z,9.90
2023-02-13T22:09:05.229Z,9.80
2023-02-13T22:11:32.877Z,10.30
2023-02-13T22:14:02.672Z,9.40
2023-02-13T22:16:35.023Z,9.70
2023-02-13T22:19:04.135Z,9.10
2023-02-13T22:21:32.678Z,9.70
2023-02-13T22:24:00.051Z,9.70
2023-02-13T22:26:29.768Z,8.90
2023-02-13T22:29:03.910Z,10.00
2023-02-13T22:31:31.130Z,9.40
2023-02-13T22:34:03.783Z,9.80
2023-02-13T22:36:35.299Z,9.70
2023-02-13T22:39:01.987Z,8.80
2023-02-13T22:41:29.014Z,8.50
2023-02-13T22:43:55.706Z,9.40
2023-02-13T22:46:25.366Z,9.20
2023-02-13T22:48:52.560Z,8.20
2023-02-13T22:51:22.034Z,9.50
2023-02-13T22:53:49.940Z,8.60
2023-02-13T22:56:16.881Z,9.00
2023-02-13T22:58:43.589Z,8.80
2023-02-13T23:01:12.473Z,7.70
2023-02-13T23:03:40.070Z,8.80
2023-02-13T23:06:09.045Z,9.00
2023-02-13T23:08:36.387Z,8.00
2023-02-13T23:11:30.194Z,9.20
2023-02-13T23:13:56.911Z,7.70
2023-02-13T23:16:24.258Z,9.20
2023-02-13T23:18:53.422Z,8.60
2023-02-13T23:21:20.678Z,8.60
2023-02-13T23:23:47.882Z,8.00
2023-02-13T23:26:15.309Z,8.20
2023-02-13T23:28:42.287Z,7.80
2023-02-13T23:31:09.347Z,8.30
2023-02-13T23:33:36.149Z,7.90
2023-02-13T23:36:03.147Z,8.40
2023-02-13T23:38:29.945Z,8.10
2023-02-13T23:40:56.627Z,7.70
2023-02-13T23:43:23.373Z,7.90
2023-02-13T23:45:50.101Z,8.10
2023-02-13T23:48:16.720Z,8.00
2023-02-13T23:50:43.406Z,7.80
2023-02-13T23:53:10.115Z,8.00
2023-02-13T23:55:36.721Z,6.60
2023-02-13T23:58:03.383Z,7.50
